.
WxDataArchive / Data Records for 2010-06-18
2010-06-17 June 2010 2010-06-19

Data Records for Friday, 18 June 2010

Time	Temp	Chill	HIndex	Humid	Dewpt	 Wind 	HiWind	WindDir	Rain 	Barom 
-----	----	-----	------	-----	-----	------	------	-------	-----	----- 
00:00	68.6	68.6	68.6	79	61.8	0	0	---	0.00	30.029 
00:05	68.4	68.4	68.4	80	62.0	0	0	---	0.00	30.029 
00:10	68.3	68.3	68.3	81	62.2	0	0	---	0.00	30.029 
00:15	68.3	68.3	68.3	81	62.2	0	0	---	0.00	30.029 
00:20	68.1	68.1	68.1	81	62.0	0	0	---	0.00	30.029 
00:25	67.9	67.9	67.9	82	62.2	0	0	---	0.00	30.029 
00:30	67.9	67.9	67.9	82	62.2	0	0	---	0.00	30.030 
00:35	67.9	67.9	67.9	82	62.2	0	0	---	0.00	30.030 
00:40	67.8	67.8	67.8	83	62.4	0	0	---	0.00	30.030 
00:45	67.6	67.6	67.6	83	62.2	0	0	---	0.00	30.031 
00:50	67.6	67.6	67.6	83	62.2	0	0	---	0.00	30.031 
00:55	67.4	67.4	67.4	84	62.4	0	0	---	0.00	30.031 
01:00	67.3	67.3	67.3	84	62.3	0	0	---	0.00	30.032 
01:05	67.1	67.1	67.1	84	62.1	0	0	---	0.00	30.032 
01:10	66.9	66.9	66.9	85	62.2	0	0	---	0.00	30.032 
01:15	66.8	66.8	66.8	85	62.1	0	0	---	0.00	30.031 
01:20	66.6	66.6	66.6	86	62.3	0	0	---	0.00	30.031 
01:25	66.4	66.4	66.4	86	62.1	0	0	---	0.00	30.031 
01:30	66.4	66.4	66.4	87	62.4	0	0	---	0.00	30.032 
01:35	66.3	66.3	66.3	87	62.3	0	0	---	0.00	30.032 
01:40	66.1	66.1	66.1	87	62.1	0	0	---	0.00	30.032 
01:45	66.1	66.1	66.1	88	62.4	0	0	---	0.00	30.041 
01:50	66.3	66.3	66.3	88	62.6	0	0	---	0.00	30.041 
01:55	66.3	66.3	66.3	88	62.6	0	0	---	0.00	30.041 
02:00	66.3	66.3	66.3	88	62.6	0	0	---	0.00	30.039 
02:05	66.3	66.3	66.3	88	62.6	0	0	---	0.00	30.039 
02:10	66.3	66.3	66.3	88	62.6	0	0	---	0.00	30.039 
02:15	66.1	66.1	66.1	88	62.4	0	0	---	0.00	30.042 
02:20	66.1	66.1	66.1	88	62.4	0	0	---	0.00	30.042 
02:25	66.0	66.0	66.0	88	62.3	0	0	---	0.00	30.042 
02:30	66.0	66.0	66.0	88	62.3	0	1	90	0.00	30.046 
02:35	66.0	66.0	66.0	88	62.3	0	0	---	0.00	30.046 
02:40	65.8	65.8	65.8	89	62.5	0	0	---	0.00	30.046 
02:45	65.8	65.8	65.8	89	62.5	0	0	---	0.00	30.043 
02:50	65.6	65.6	65.6	89	62.3	0	0	---	0.00	30.043 
02:55	65.6	65.6	65.6	89	62.3	0	0	---	0.00	30.043 
03:00	65.6	65.6	65.6	89	62.3	0	0	---	0.00	30.041 
03:05	65.5	65.5	65.5	90	62.5	0	0	---	0.00	30.041 
03:10	65.5	65.5	65.5	90	62.5	0	0	---	0.00	30.041 
03:15	65.3	65.3	65.3	90	62.3	0	0	---	0.00	30.045 
03:20	65.2	65.2	65.2	90	62.2	0	0	---	0.00	30.045 
03:25	65.2	65.2	65.2	90	62.2	0	0	---	0.00	30.045 
03:30	65.0	65.0	65.0	90	62.0	0	0	---	0.00	30.041 
03:35	64.8	64.8	64.8	90	61.8	0	0	---	0.00	30.041 
03:40	64.8	64.8	64.8	91	62.1	0	0	---	0.00	30.041 
03:45	64.7	64.7	64.7	91	62.0	0	0	---	0.00	30.044 
03:50	64.7	64.7	64.7	91	62.0	0	0	---	0.00	30.044 
03:55	64.5	64.5	64.5	91	61.8	0	0	---	0.00	30.044 
04:00	64.5	64.5	64.5	91	61.8	0	0	---	0.00	30.045 
04:05	64.5	64.5	64.5	92	62.1	0	0	---	0.00	30.045 
04:10	64.3	64.3	64.3	92	61.9	0	0	---	0.00	30.045 
04:15	64.2	64.2	64.2	92	61.8	0	0	---	0.00	30.042 
04:20	64.2	64.2	64.2	92	61.8	0	0	---	0.00	30.042 
04:25	64.0	64.0	64.0	92	61.6	0	0	---	0.00	30.042 
04:30	64.0	64.0	64.0	92	61.6	0	0	---	0.00	30.038 
04:35	63.9	63.9	63.9	92	61.5	0	0	---	0.00	30.038 
04:40	63.7	63.7	63.7	92	61.3	0	0	---	0.00	30.038 
04:45	63.5	63.5	63.5	92	61.1	0	0	---	0.00	30.042 
04:50	63.5	63.5	63.5	92	61.1	0	0	---	0.00	30.042 
04:55	63.5	63.5	63.5	93	61.4	0	0	---	0.00	30.042 
05:00	63.5	63.5	63.5	93	61.4	0	0	---	0.00	30.033 
05:05	63.4	63.4	63.4	93	61.3	0	0	---	0.00	30.033 
05:10	63.4	63.4	63.4	93	61.3	0	0	---	0.00	30.033 
05:15	63.4	63.4	63.4	93	61.3	0	0	---	0.00	30.030 
05:20	63.4	63.4	63.4	93	61.3	0	0	---	0.00	30.030 
05:25	63.5	63.5	63.5	94	61.7	0	0	---	0.00	30.030 
05:30	63.5	63.5	63.5	94	61.7	0	0	---	0.00	30.029 
05:35	63.5	63.5	63.5	94	61.7	0	0	---	0.00	30.029 
05:40	63.4	63.4	63.4	94	61.6	0	0	---	0.00	30.029 
05:45	63.4	63.4	63.4	94	61.6	0	0	---	0.00	30.029 
05:50	63.4	63.4	63.4	94	61.6	0	0	---	0.00	30.029 
05:55	63.4	63.4	63.4	94	61.6	0	0	---	0.00	30.029 
06:00	63.4	63.4	63.4	94	61.6	0	0	---	0.00	30.032 
06:05	63.2	63.2	63.2	94	61.4	0	0	---	0.00	30.032 
06:10	63.2	63.2	63.2	94	61.4	0	0	---	0.00	30.032 
06:15	63.1	63.1	63.1	94	61.3	0	0	---	0.00	30.034 
06:20	63.1	63.1	63.1	94	61.3	0	0	---	0.00	30.034 
06:25	63.1	63.1	63.1	94	61.3	0	0	---	0.00	30.034 
06:30	62.9	62.9	62.9	94	61.1	0	0	---	0.00	30.034 
06:35	62.9	62.9	62.9	94	61.1	0	0	---	0.00	30.034 
06:40	62.9	62.9	62.9	94	61.1	0	0	---	0.00	30.034 
06:45	62.9	62.9	62.9	94	61.1	0	0	---	0.00	30.038 
06:50	63.1	63.1	63.1	94	61.3	0	0	---	0.00	30.038 
06:55	63.1	63.1	63.1	94	61.3	0	0	---	0.00	30.038 
07:00	63.2	63.2	63.2	95	61.7	0	0	---	0.00	30.042 
07:05	63.5	63.5	63.5	95	62.0	0	0	---	0.00	30.042 
07:10	63.9	63.9	63.9	95	62.4	0	0	---	0.00	30.042 
07:15	64.2	64.2	64.2	95	62.7	0	0	---	0.00	30.042 
07:20	64.5	64.5	64.5	95	63.0	0	0	---	0.00	30.042 
07:25	65.2	65.2	65.2	95	63.7	0	0	---	0.00	30.042 
07:30	65.8	65.8	65.8	94	64.0	0	0	---	0.00	30.043 
07:35	66.6	66.6	66.6	93	64.5	0	0	---	0.00	30.043 
07:40	67.1	67.1	67.1	92	64.7	0	0	---	0.00	30.043 
07:45	67.9	67.9	67.9	90	64.9	0	0	---	0.00	30.049 
07:50	68.6	68.6	68.6	88	64.9	0	0	---	0.00	30.049 
07:55	69.3	69.3	69.3	86	64.9	0	0	---	0.00	30.049 
08:00	70.1	70.1	70.1	84	65.0	0	0	---	0.00	30.056 
08:05	70.8	70.8	70.8	83	65.4	0	0	---	0.00	30.056 
08:10	71.5	71.5	71.5	81	65.4	0	0	---	0.00	30.056 
08:15	72.1	72.1	72.1	80	65.6	0	1	90	0.00	30.055 
08:20	72.8	72.8	72.8	78	65.5	0	0	---	0.00	30.055 
08:25	73.3	73.3	73.3	77	65.6	0	3	90	0.00	30.055 
08:30	73.9	73.9	73.9	76	65.8	1	3	90	0.00	30.056 
08:35	74.2	74.2	74.2	75	65.8	0	3	90	0.00	30.056 
08:40	74.9	74.9	74.9	74	66.0	0	2	90	0.00	30.056 
08:45	75.3	75.3	76.7	73	66.0	0	2	90	0.00	30.050 
08:50	75.6	75.6	77.0	73	66.3	1	3	90	0.00	30.050 
08:55	75.8	75.8	77.3	73	66.5	1	3	112	0.00	30.050 
09:00	76.0	76.0	77.5	72	66.3	0	3	112	0.00	30.046 
09:05	76.3	76.3	78.0	69	65.4	1	4	112	0.00	30.046 
09:10	76.8	76.8	78.6	69	65.8	0	3	90	0.00	30.046 
09:15	76.5	76.5	78.2	69	65.6	1	2	338	0.00	30.054 
09:20	76.3	76.3	78.0	69	65.4	1	2	292	0.00	30.054 
09:25	76.7	76.7	78.4	70	66.2	0	1	292	0.00	30.054 
09:30	77.0	77.0	78.8	67	65.2	0	2	270	0.00	30.047 
09:35	77.2	77.2	79.0	68	65.8	0	2	270	0.00	30.047 
09:40	77.2	77.2	79.0	68	65.8	0	2	270	0.00	30.047 
09:45	77.4	77.4	79.2	68	66.0	1	2	270	0.00	30.056 
09:50	77.6	77.6	79.5	67	65.8	1	3	270	0.00	30.056 
09:55	77.6	77.6	79.5	67	65.8	1	3	315	0.00	30.056 
10:00	77.7	77.7	79.6	68	66.3	1	4	292	0.00	30.053 
10:05	78.3	78.3	80.3	67	66.4	0	2	292	0.00	30.053 
10:10	78.8	78.8	80.9	66	66.5	0	2	292	0.00	30.053 
10:15	79.4	79.4	81.4	63	65.7	1	5	0	0.00	30.040 
10:20	79.4	79.4	81.4	63	65.7	1	5	90	0.00	30.040 
10:25	79.4	79.4	81.5	64	66.1	0	1	270	0.00	30.040 
10:30	79.8	79.8	81.9	63	66.1	0	3	315	0.00	30.022 
10:35	80.1	80.1	82.4	64	66.8	1	4	68	0.00	30.022 
10:40	80.5	80.5	82.4	60	65.3	1	4	68	0.00	30.022 
10:45	80.5	80.5	82.5	61	65.8	1	3	225	0.00	30.004 
10:50	80.3	80.3	82.4	62	66.1	1	3	292	0.00	30.004 
10:55	80.7	80.7	82.9	62	66.4	0	3	338	0.00	30.004 
11:00	81.1	81.1	83.3	61	66.4	1	4	248	0.00	29.992 
11:05	81.8	81.8	84.1	60	66.5	1	4	292	0.00	29.992 
11:10	82.4	82.4	84.4	57	65.6	2	6	112	0.00	29.992 
11:15	82.6	82.6	84.7	57	65.8	2	5	90	0.00	29.987 
11:20	82.8	82.8	85.2	58	66.5	2	6	90	0.00	29.987 
11:25	83.2	83.2	85.6	57	66.4	1	4	68	0.00	29.987 
11:30	83.6	83.6	86.4	58	67.2	1	4	112	0.00	29.977 
11:35	83.8	83.8	86.4	57	66.9	2	6	68	0.00	29.977 
11:40	83.6	83.6	86.1	57	66.7	3	9	90	0.00	29.977 
11:45	83.6	83.6	86.4	58	67.2	2	6	90	0.00	29.966 
11:50	83.6	83.6	86.4	58	67.2	2	10	112	0.00	29.966 
11:55	83.8	83.8	86.4	57	66.9	2	5	90	0.00	29.966 
12:00	83.8	83.8	86.9	59	67.9	2	7	90	0.00	29.978 
12:05	83.6	83.6	86.4	58	67.2	2	5	292	0.00	29.978 
12:10	83.8	83.8	86.7	58	67.4	2	6	68	0.00	29.978 
12:15	83.4	83.4	86.1	58	67.0	2	6	292	0.00	29.978 
12:20	83.6	83.6	86.6	59	67.7	1	5	112	0.00	29.978 
12:25	83.0	83.0	85.3	57	66.2	3	6	315	0.00	29.978 
12:30	82.4	82.4	85.2	61	67.6	1	5	270	0.00	29.979 
12:35	82.4	82.4	85.0	60	67.1	2	6	90	0.00	29.979 
12:40	82.4	82.4	84.8	59	66.6	2	5	315	0.00	29.979 
12:45	82.8	82.8	86.1	62	68.4	1	5	292	0.00	29.977 
12:50	83.2	83.2	85.8	58	66.9	3	10	270	0.00	29.977 
12:55	84.0	84.0	87.5	60	68.6	1	4	68	0.00	29.977 
13:00	84.3	84.3	87.2	57	67.4	2	5	292	0.00	29.977 
13:05	84.7	84.7	87.9	57	67.7	1	4	315	0.00	29.977 
13:10	84.9	84.9	88.2	57	67.9	1	5	315	0.00	29.977 
13:15	84.9	84.9	87.9	56	67.4	2	6	0	0.00	29.979 
13:20	85.3	85.3	88.5	56	67.8	2	7	45	0.00	29.979 
13:25	85.3	85.3	88.5	56	67.8	2	6	292	0.00	29.979 
13:30	85.3	85.3	89.2	58	68.8	2	5	270	0.00	29.980 
13:35	85.5	85.5	89.2	57	68.5	2	7	270	0.00	29.980 
13:40	85.5	85.5	88.9	56	68.0	2	5	270	0.00	29.980 
13:45	85.9	85.9	88.9	54	67.3	1	5	22	0.00	29.979 
13:50	86.3	86.3	90.2	56	68.7	2	7	270	0.00	29.979 
13:55	86.7	86.7	91.3	57	69.6	1	3	270	0.00	29.979 
14:00	87.0	87.0	90.8	54	68.3	2	5	270	0.00	29.976 
14:05	87.0	87.0	91.5	56	69.4	2	5	270	0.00	29.976 
14:10	87.0	87.0	91.9	57	69.9	1	3	0	0.00	29.976 
14:15	87.0	87.0	90.8	54	68.3	1	3	270	0.00	29.978 
14:20	87.4	87.4	92.2	56	69.7	1	5	68	0.00	29.978 
14:25	87.0	87.0	90.8	54	68.3	2	6	292	0.00	29.978 
14:30	86.7	86.7	91.0	56	69.1	2	4	270	0.00	29.978 
14:35	87.4	87.4	93.0	58	70.8	1	3	315	0.00	29.978 
14:40	87.6	87.6	91.8	54	68.9	1	5	292	0.00	29.978 
14:45	87.8	87.8	92.6	55	69.6	1	5	338	0.00	29.974 
14:50	88.0	88.0	93.0	55	69.8	2	4	45	0.00	29.974 
14:55	88.0	88.0	93.4	56	70.3	2	5	292	0.00	29.974 
15:00	88.0	88.0	92.6	54	69.2	1	4	270	0.00	29.973 
15:05	88.4	88.4	94.6	57	71.2	1	4	112	0.00	29.973 
15:10	88.4	88.4	93.3	54	69.6	2	4	270	0.00	29.973 
15:15	88.4	88.4	93.3	54	69.6	1	5	270	0.00	29.977 
15:20	88.4	88.4	93.7	55	70.1	2	5	270	0.00	29.977 
15:25	88.6	88.6	94.1	55	70.3	1	3	270	0.00	29.977 
15:30	88.8	88.8	94.1	54	70.0	2	4	270	0.00	29.974 
15:35	89.0	89.0	94.5	54	70.2	1	4	270	0.00	29.974 
15:40	89.0	89.0	94.5	54	70.2	1	4	270	0.00	29.974 
15:45	89.0	89.0	94.5	54	70.2	2	3	270	0.00	29.973 
15:50	88.6	88.6	93.7	54	69.8	2	5	270	0.00	29.973 
15:55	88.6	88.6	93.7	54	69.8	2	6	248	0.00	29.973 
16:00	88.6	88.6	94.6	56	70.9	2	5	292	0.00	29.967 
16:05	88.6	88.6	94.6	56	70.9	2	5	292	0.00	29.967 
16:10	88.6	88.6	94.6	56	70.9	2	4	292	0.00	29.967 
16:15	88.6	88.6	95.0	57	71.4	2	4	292	0.00	29.965 
16:20	88.8	88.8	95.9	58	72.1	1	3	292	0.00	29.965 
16:25	88.8	88.8	95.4	57	71.6	1	4	292	0.00	29.965 
16:30	88.4	88.4	94.2	56	70.7	2	4	270	0.00	29.959 
16:35	88.2	88.2	94.7	58	71.5	1	3	292	0.00	29.959 
16:40	88.6	88.6	95.5	58	71.9	1	4	292	0.00	29.959 
16:45	88.8	88.8	95.4	57	71.6	1	3	315	0.00	29.954 
16:50	89.0	89.0	95.9	57	71.7	1	3	315	0.00	29.954 
16:55	89.3	89.3	96.5	57	72.0	1	4	315	0.00	29.954 
17:00	88.8	88.8	95.4	57	71.6	1	6	270	0.00	29.947 
17:05	88.8	88.8	95.4	57	71.6	1	4	225	0.00	29.947 
17:10	88.8	88.8	94.5	55	70.5	2	4	270	0.00	29.947 
17:15	88.8	88.8	95.4	57	71.6	1	3	338	0.00	29.942 
17:20	88.6	88.6	94.6	56	70.9	2	6	292	0.00	29.942 
17:25	88.6	88.6	95.0	57	71.4	1	4	248	0.00	29.942 
17:30	88.8	88.8	95.4	57	71.6	0	2	248	0.00	29.941 
17:35	88.6	88.6	94.6	56	70.9	1	5	270	0.00	29.941 
17:40	88.6	88.6	94.6	56	70.9	1	4	270	0.00	29.941 
17:45	88.4	88.4	94.6	57	71.2	1	5	270	0.00	29.944 
17:50	88.4	88.4	94.2	56	70.7	2	5	248	0.00	29.944 
17:55	88.4	88.4	94.6	57	71.2	1	4	248	0.00	29.944 
18:00	88.2	88.2	94.2	57	71.0	2	5	292	0.00	29.941 
18:05	87.6	87.6	93.4	58	71.0	2	5	248	0.00	29.941 
18:10	87.2	87.2	93.1	59	71.1	1	3	248	0.00	29.941 
18:15	86.7	86.7	92.5	60	71.1	0	3	225	0.00	29.929 
18:20	86.5	86.5	92.1	60	70.9	1	5	270	0.00	29.929 
18:25	86.5	86.5	91.7	59	70.4	1	5	270	0.00	29.929 
18:30	86.7	86.7	92.1	59	70.6	1	4	270	0.00	29.915 
18:35	86.5	86.5	92.5	61	71.4	0	2	270	0.00	29.915 
18:40	86.3	86.3	92.1	61	71.2	1	3	270	0.00	29.915 
18:45	85.9	85.9	91.3	61	70.9	0	2	338	0.00	29.904 
18:50	85.9	85.9	91.6	62	71.3	1	4	112	0.00	29.904 
18:55	86.1	86.1	91.7	61	71.0	1	5	248	0.00	29.904 
19:00	86.1	86.1	91.7	61	71.0	1	5	270	0.00	29.897 
19:05	85.9	85.9	91.6	62	71.3	1	3	270	0.00	29.897 
19:10	85.9	85.9	91.6	62	71.3	0	2	270	0.00	29.897 
19:15	85.7	85.7	91.2	62	71.1	0	3	112	0.00	29.906 
19:20	85.5	85.5	90.8	62	71.0	1	4	315	0.00	29.906 
19:25	85.3	85.3	90.5	62	70.8	0	2	292	0.00	29.906 
19:30	85.1	85.1	90.1	62	70.6	1	3	292	0.00	29.926 
19:35	85.1	85.1	90.1	62	70.6	0	2	315	0.00	29.926 
19:40	85.1	85.1	90.1	62	70.6	0	3	248	0.00	29.926 
19:45	84.9	84.9	90.0	63	70.9	0	3	225	0.00	29.924 
19:50	84.9	84.9	90.0	63	70.9	1	3	270	0.00	29.924 
19:55	84.9	84.9	90.0	63	70.9	1	3	270	0.00	29.924 
20:00	84.9	84.9	90.4	64	71.3	0	2	270	0.00	29.940 
20:05	84.7	84.7	90.0	64	71.1	0	3	225	0.00	29.940 
20:10	84.1	84.1	88.0	61	69.2	3	15	248	0.00	29.940 
20:15	76.7	76.7	78.5	64	63.6	10	20	292	0.00	29.990 
20:20	72.7	72.7	72.7	74	63.9	6	14	270	0.00	29.990 
20:25	70.3	70.3	70.3	79	63.5	6	12	292	0.00	29.990 
20:30	68.6	68.6	68.6	84	63.6	4	10	315	0.10	30.024 
20:35	67.4	67.4	67.4	88	63.7	4	9	270	0.05	30.024 
20:40	66.9	66.9	66.9	89	63.5	4	7	315	0.03	30.024 
20:45	66.8	66.8	66.8	90	63.8	4	10	315	0.00	30.029 
20:50	66.6	66.6	66.6	91	63.9	3	7	292	0.01	30.029 
20:55	66.6	66.6	66.6	91	63.9	3	9	270	0.00	30.029 
21:00	66.8	66.8	66.8	91	64.1	3	7	315	0.00	30.031 
21:05	66.8	66.8	66.8	91	64.1	3	5	315	0.01	30.031 
21:10	66.8	66.8	66.8	91	64.1	3	7	315	0.01	30.031 
21:15	66.8	66.8	66.8	91	64.1	3	7	292	0.01	30.027 
21:20	66.6	66.6	66.6	91	63.9	3	6	315	0.01	30.027 
21:25	66.8	66.8	66.8	91	64.1	3	6	292	0.01	30.027 
21:30	66.8	66.8	66.8	91	64.1	2	5	315	0.01	30.023 
21:35	66.6	66.6	66.6	90	63.6	1	3	315	0.01	30.023 
21:40	66.6	66.6	66.6	91	63.9	0	2	292	0.02	30.023 
21:45	66.4	66.4	66.4	91	63.7	0	1	292	0.01	29.999 
21:50	66.4	66.4	66.4	91	63.7	0	1	292	0.01	29.999 
21:55	66.4	66.4	66.4	92	64.0	0	1	292	0.01	29.999 
22:00	66.4	66.4	66.4	92	64.0	0	1	292	0.01	29.967 
22:05	66.4	66.4	66.4	92	64.0	0	2	292	0.00	29.967 
22:10	66.6	66.6	66.6	92	64.2	1	4	112	0.00	29.967 
22:15	66.4	66.4	66.4	93	64.3	0	3	68	0.01	29.926 
22:20	66.4	66.4	66.4	93	64.3	0	1	68	0.00	29.926 
22:25	66.4	66.4	66.4	92	64.0	0	2	68	0.00	29.926 
22:30	66.4	66.4	66.4	93	64.3	0	1	68	0.00	29.931 
22:35	66.4	66.4	66.4	93	64.3	0	0	---	0.00	29.931 
22:40	66.4	66.4	66.4	93	64.3	0	0	---	0.00	29.931 
22:45	66.3	66.3	66.3	93	64.2	0	1	68	0.00	29.940 
22:50	66.3	66.3	66.3	93	64.2	0	0	---	0.00	29.940 
22:55	66.3	66.3	66.3	93	64.2	0	0	---	0.00	29.940 
23:00	66.3	66.3	66.3	93	64.2	0	2	68	0.00	29.935 
23:05	66.3	66.3	66.3	93	64.2	0	1	68	0.00	29.935 
23:10	66.3	66.3	66.3	93	64.2	0	1	68	0.00	29.935 
23:15	66.3	66.3	66.3	93	64.2	0	1	68	0.00	29.939 
23:20	66.3	66.3	66.3	93	64.2	0	0	---	0.00	29.939 
23:25	66.4	66.4	66.4	93	64.3	0	1	68	0.00	29.939 
23:30	66.4	66.4	66.4	93	64.3	0	0	---	0.00	29.939 
23:35	66.4	66.4	66.4	93	64.3	0	0	---	0.00	29.939 
23:40	66.3	66.3	66.3	93	64.2	0	0	---	0.00	29.939 
23:45	66.3	66.3	66.3	93	64.2	0	0	---	0.00	29.937 
23:50	66.3	66.3	66.3	93	64.2	0	0	---	0.00	29.937 
23:55	66.1	66.1	66.1	93	64.0	0	0	---	0.00	29.937 

CoCoRaHS
IN-AL-39
A2 Web Hosting
Creative Commons License
GoDaddy
search engine by freefind advanced

loaded 2018-11-15 05:26:32 • last modified 2010-11-18 10:43:29
Privacy PolicyDisclaimer
• wx.awcolley.com is powered by PmWiki v.2002016 •
• all content (unless otherwise noted) © 2018 A W Colley